Glendon, West Virginia
Current Conditions -  °F | °C
As of 8:15 PM on Thursday 27 Nov 2014 (Local Time) from KW22 Reporting Station
Light Snow Light Snow  
Wind Chill: 19°   Ceiling: 100
Heat Index: 27°   Visibility: 1.7mi
Dew Point: 27°   Wind: 7mph
Humidity: 100%   Direction: NA
Pressure: 30.22"   Gusts: 13mph
Location:  38.6272°N, 80.8879°W
Report Text: KW22 280115Z AUTO VRB06G11KT 1 3/4SM -SN BKN001 OVC009 M03/M03 A3022 RMK AO2
Loading
Personal Weather Stations






























Interactive Weather Map New forecast layout! Learn more

10-Day Weather Forecast

Advertisements
Track Severe Weather on mobile